createdAt,value
2019-02-10T00:00:36.817Z,11.80
2019-02-10T00:04:46.723Z,10.60
2019-02-10T00:08:53.959Z,10.53
2019-02-10T00:13:40.932Z,14.97
2019-02-10T00:17:48.046Z,9.13
2019-02-10T00:21:55.103Z,11.43
2019-02-10T00:26:01.991Z,14.20
2019-02-10T00:30:08.991Z,11.50
2019-02-10T00:34:16.236Z,12.43
2019-02-10T00:38:23.182Z,8.33
2019-02-10T00:42:30.318Z,12.97
2019-02-10T00:46:37.135Z,11.77
2019-02-10T00:50:46.088Z,12.47
2019-02-10T00:54:53.044Z,10.70
2019-02-10T00:58:59.881Z,10.30
2019-02-10T01:03:07.963Z,13.63
2019-02-10T01:07:15.031Z,11.50
2019-02-10T01:11:22.047Z,13.03
2019-02-10T01:15:28.934Z,15.23
2019-02-10T01:19:35.932Z,10.47
2019-02-10T01:23:42.765Z,11.43
2019-02-10T01:27:49.626Z,9.73
2019-02-10T01:31:56.595Z,18.50
2019-02-10T01:36:04.508Z,13.27
2019-02-10T01:40:12.039Z,13.80
2019-02-10T01:44:20.016Z,11.27
2019-02-10T01:48:27.506Z,15.47
2019-02-10T01:52:34.490Z,10.57
2019-02-10T01:56:41.422Z,9.73
2019-02-10T02:00:49.619Z,12.23
2019-02-10T02:04:56.551Z,9.27
2019-02-10T02:09:05.031Z,12.33
2019-02-10T02:13:12.275Z,9.27
2019-02-10T02:17:19.176Z,12.00
2019-02-10T02:21:26.222Z,14.30
2019-02-10T02:25:33.114Z,11.40
2019-02-10T02:29:40.105Z,11.73
2019-02-10T02:33:47.523Z,9.33
2019-02-10T02:37:54.573Z,12.30
2019-02-10T02:42:01.602Z,10.70
2019-02-10T02:46:08.773Z,8.77
2019-02-10T02:50:15.784Z,12.03
2019-02-10T02:54:22.761Z,9.13
2019-02-10T02:58:29.745Z,11.33
2019-02-10T03:02:36.720Z,11.33
2019-02-10T03:06:47.237Z,8.67
2019-02-10T03:10:54.033Z,10.13
2019-02-10T03:15:00.881Z,10.23
2019-02-10T03:19:07.883Z,9.93
2019-02-10T03:23:14.726Z,8.03
2019-02-10T03:27:21.820Z,7.90
2019-02-10T03:31:29.251Z,6.90
2019-02-10T03:35:36.661Z,6.67
2019-02-10T03:39:43.888Z,11.00
2019-02-10T03:43:50.935Z,9.77
2019-02-10T03:47:58.082Z,12.17
2019-02-10T03:52:06.076Z,12.93
2019-02-10T03:56:12.971Z,9.80
2019-02-10T04:00:20.046Z,12.07
2019-02-10T04:04:27.193Z,12.80
2019-02-10T04:08:34.110Z,11.13
2019-02-10T04:12:40.966Z,11.73
2019-02-10T04:16:47.921Z,11.33
2019-02-10T04:20:54.805Z,14.33
2019-02-10T04:25:01.868Z,7.97
2019-02-10T04:29:08.820Z,9.37
2019-02-10T04:33:16.724Z,13.00
2019-02-10T04:37:23.719Z,9.60
2019-02-10T04:41:30.663Z,14.10
2019-02-10T04:45:37.899Z,13.13
2019-02-10T04:49:44.752Z,7.70
2019-02-10T04:53:51.608Z,6.60
2019-02-10T04:57:58.425Z,9.70
2019-02-10T05:02:05.702Z,12.23
2019-02-10T05:06:12.764Z,9.03
2019-02-10T05:10:21.792Z,10.57
2019-02-10T05:14:29.494Z,7.07
2019-02-10T05:18:36.340Z,10.13
2019-02-10T05:22:43.338Z,7.53
2019-02-10T05:26:50.595Z,9.00
2019-02-10T05:30:57.502Z,7.00
2019-02-10T05:35:04.383Z,5.83
2019-02-10T05:39:11.266Z,6.60
2019-02-10T05:43:18.108Z,5.10
2019-02-10T05:47:25.035Z,6.47
2019-02-10T05:51:32.011Z,4.60
2019-02-10T05:55:39.027Z,4.10
2019-02-10T05:59:46.015Z,4.70
2019-02-10T06:03:53.039Z,3.57
2019-02-10T06:07:59.981Z,3.60
2019-02-10T06:12:06.885Z,5.23
2019-02-10T06:16:14.042Z,4.73
2019-02-10T06:20:21.066Z,5.37
2019-02-10T06:24:28.265Z,4.70
2019-02-10T06:28:35.131Z,3.57
2019-02-10T06:32:42.085Z,2.67
2019-02-10T06:36:48.973Z,4.47
2019-02-10T06:40:55.811Z,3.57
2019-02-10T06:45:04.131Z,4.70
2019-02-10T06:49:11.005Z,3.97
2019-02-10T06:53:18.164Z,3.23
2019-02-10T06:57:26.868Z,2.60
2019-02-10T07:01:41.088Z,3.37
2019-02-10T07:05:47.976Z,2.90
2019-02-10T07:09:55.012Z,3.57
2019-02-10T07:14:06.797Z,4.03
2019-02-10T07:19:12.515Z,2.53
2019-02-10T07:24:26.193Z,1.93
2019-02-10T07:29:10.961Z,3.27
2019-02-10T07:33:50.411Z,2.23
2019-02-10T07:38:21.584Z,4.03
2019-02-10T07:43:19.254Z,2.37
2019-02-10T07:48:24.126Z,2.53
2019-02-10T07:53:24.238Z,1.80
2019-02-10T07:58:10.394Z,1.83
2019-02-10T08:03:19.187Z,1.83
2019-02-10T08:08:29.893Z,3.87
2019-02-10T08:13:23.276Z,2.13
2019-02-10T08:17:59.094Z,1.87
2019-02-10T08:22:50.537Z,1.87
2019-02-10T08:27:55.958Z,1.73
2019-02-10T08:32:27.012Z,3.23
2019-02-10T08:36:57.639Z,2.10
2019-02-10T08:42:03.967Z,3.17
2019-02-10T08:46:49.801Z,3.27
2019-02-10T08:51:36.959Z,2.70
2019-02-10T08:55:44.090Z,3.87
2019-02-10T08:59:51.213Z,2.03
2019-02-10T09:04:01.232Z,3.00
2019-02-10T09:08:08.538Z,2.47
2019-02-10T09:12:15.502Z,4.07
2019-02-10T09:16:22.410Z,2.60
2019-02-10T09:20:31.014Z,3.80
2019-02-10T09:24:39.318Z,2.77
2019-02-10T09:28:46.527Z,2.43
2019-02-10T09:32:53.587Z,9.87
2019-02-10T09:37:00.634Z,3.53
2019-02-10T09:41:07.575Z,2.20
2019-02-10T09:45:15.040Z,2.27
2019-02-10T09:49:22.093Z,2.60
2019-02-10T09:53:28.988Z,2.80
2019-02-10T09:57:40.624Z,3.80
2019-02-10T10:01:47.844Z,2.57
2019-02-10T10:05:55.947Z,2.97
2019-02-10T10:10:02.871Z,3.07
2019-02-10T10:14:12.545Z,3.17
2019-02-10T10:18:19.461Z,3.73
2019-02-10T10:22:26.362Z,3.40
2019-02-10T10:26:33.295Z,2.70
2019-02-10T10:30:40.330Z,2.50
2019-02-10T10:34:47.201Z,2.70
2019-02-10T10:38:54.062Z,2.80
2019-02-10T10:43:01.023Z,3.03
2019-02-10T10:47:09.024Z,3.77
2019-02-10T10:51:15.983Z,2.90
2019-02-10T10:55:22.855Z,3.13
2019-02-10T10:59:29.777Z,2.90
2019-02-10T11:03:36.657Z,2.77
2019-02-10T11:07:43.761Z,7.03
2019-02-10T11:11:51.982Z,3.70
2019-02-10T11:15:59.162Z,5.20
2019-02-10T11:20:06.864Z,3.70
2019-02-10T11:24:14.000Z,3.30
2019-02-10T11:28:20.977Z,3.93
2019-02-10T11:32:28.874Z,4.90
2019-02-10T11:36:35.938Z,4.83
2019-02-10T11:40:47.114Z,4.10
2019-02-10T11:44:55.054Z,4.03
2019-02-10T11:49:03.958Z,4.80
2019-02-10T11:53:12.777Z,3.23
2019-02-10T11:57:19.902Z,3.50
2019-02-10T12:01:28.938Z,3.70
2019-02-10T12:05:39.458Z,3.83
2019-02-10T12:09:51.763Z,4.00
2019-02-10T12:13:59.453Z,3.73
2019-02-10T12:18:06.303Z,4.13
2019-02-10T12:22:13.330Z,3.80
2019-02-10T12:26:20.316Z,3.30
2019-02-10T12:30:28.246Z,3.00
2019-02-10T12:34:35.197Z,3.63
2019-02-10T12:38:42.508Z,3.53
2019-02-10T12:42:49.519Z,4.87
2019-02-10T12:46:56.613Z,3.03
2019-02-10T12:51:04.072Z,3.37
2019-02-10T12:55:11.205Z,3.00
2019-02-10T12:59:18.495Z,3.00
2019-02-10T13:03:26.505Z,3.60
2019-02-10T13:07:33.338Z,3.33
2019-02-10T13:11:40.200Z,4.37
2019-02-10T13:15:47.089Z,3.27
2019-02-10T13:19:54.130Z,3.37
2019-02-10T13:24:01.007Z,3.50
2019-02-10T13:28:07.927Z,3.30
2019-02-10T13:32:15.027Z,11.70
2019-02-10T13:36:22.331Z,5.20
2019-02-10T13:40:29.160Z,5.30
2019-02-10T13:44:36.094Z,7.30
2019-02-10T13:48:43.064Z,8.40
2019-02-10T13:52:50.289Z,12.40
2019-02-10T13:56:57.204Z,7.57
2019-02-10T14:01:04.172Z,7.87
2019-02-10T14:05:11.261Z,8.10
2019-02-10T14:09:18.229Z,4.87
2019-02-10T14:13:25.172Z,5.20
2019-02-10T14:17:32.197Z,3.30
2019-02-10T14:21:39.096Z,4.13
2019-02-10T14:25:50.102Z,2.47
2019-02-10T14:29:57.198Z,2.77
2019-02-10T14:34:04.141Z,2.20
2019-02-10T14:38:11.105Z,1.60
2019-02-10T14:42:18.364Z,1.40
2019-02-10T14:46:25.377Z,1.60
2019-02-10T14:50:32.375Z,1.70
2019-02-10T14:54:39.433Z,1.40
2019-02-10T14:58:46.370Z,1.73
2019-02-10T15:02:54.233Z,1.47
2019-02-10T15:07:01.400Z,1.10
2019-02-10T15:11:10.061Z,1.47
2019-02-10T15:15:17.356Z,1.20
2019-02-10T15:19:24.377Z,1.83
2019-02-10T15:23:31.343Z,1.37
2019-02-10T15:27:40.847Z,1.30
2019-02-10T15:31:47.907Z,1.50
2019-02-10T15:35:54.874Z,1.70
2019-02-10T15:40:01.748Z,1.20
2019-02-10T15:44:10.358Z,1.10
2019-02-10T15:48:17.438Z,1.10
2019-02-10T15:52:24.625Z,1.60
2019-02-10T15:56:31.546Z,1.77
2019-02-10T16:00:38.842Z,1.53
2019-02-10T16:04:46.004Z,2.10
2019-02-10T16:08:52.946Z,1.57
2019-02-10T16:13:01.121Z,2.70
2019-02-10T16:17:08.008Z,2.27
2019-02-10T16:21:15.058Z,1.60
2019-02-10T16:25:21.963Z,1.90
2019-02-10T16:29:29.903Z,2.00
2019-02-10T16:33:36.807Z,1.80
2019-02-10T16:37:44.387Z,1.80
2019-02-10T16:41:51.259Z,1.70
2019-02-10T16:45:58.473Z,1.47
2019-02-10T16:50:07.903Z,3.43
2019-02-10T16:54:14.838Z,1.63
2019-02-10T16:58:21.738Z,1.37
2019-02-10T17:02:28.763Z,1.93
2019-02-10T17:06:35.608Z,1.63
2019-02-10T17:10:42.649Z,1.43
2019-02-10T17:14:49.765Z,1.47
2019-02-10T17:18:56.679Z,2.63
2019-02-10T17:23:04.799Z,1.53
2019-02-10T17:27:11.743Z,1.50
2019-02-10T17:31:18.653Z,1.30
2019-02-10T17:35:25.482Z,1.63
2019-02-10T17:39:32.431Z,11.93
2019-02-10T17:43:39.372Z,1.47
2019-02-10T17:47:46.184Z,1.27
2019-02-10T17:51:53.040Z,1.47
2019-02-10T17:55:59.879Z,1.83
2019-02-10T18:00:08.337Z,1.40
2019-02-10T18:04:15.483Z,1.60
2019-02-10T18:08:23.004Z,1.47
2019-02-10T18:12:30.288Z,2.13
2019-02-10T18:17:05.160Z,1.80
2019-02-10T18:21:36.854Z,1.77
2019-02-10T18:25:58.234Z,1.30
2019-02-10T18:30:24.866Z,4.57
2019-02-10T18:34:50.086Z,1.63
2019-02-10T18:39:24.970Z,1.60
2019-02-10T18:43:57.344Z,1.50
2019-02-10T18:48:16.100Z,1.70
2019-02-10T18:52:35.617Z,2.67
2019-02-10T18:57:07.605Z,2.03
2019-02-10T19:01:49.690Z,2.40
2019-02-10T19:06:14.546Z,2.27
2019-02-10T19:10:39.327Z,1.57
2019-02-10T19:15:11.191Z,1.43
2019-02-10T19:19:31.548Z,1.93
2019-02-10T19:24:00.456Z,1.83
2019-02-10T19:28:29.012Z,1.57
2019-02-10T19:32:50.169Z,1.97
2019-02-10T19:37:13.797Z,2.30
2019-02-10T19:41:39.529Z,3.27
2019-02-10T19:46:05.777Z,2.00
2019-02-10T19:50:35.113Z,1.67
2019-02-10T19:55:06.627Z,1.50
2019-02-10T19:59:35.577Z,1.40
2019-02-10T20:04:07.905Z,3.27
2019-02-10T20:08:45.571Z,2.50
2019-02-10T20:13:10.201Z,2.03
2019-02-10T20:17:33.418Z,1.97
2019-02-10T20:21:57.832Z,1.63
2019-02-10T20:26:23.381Z,2.37
2019-02-10T20:30:40.797Z,1.33
2019-02-10T20:35:12.294Z,1.90
2019-02-10T20:39:27.380Z,1.50
2019-02-10T20:43:38.583Z,2.43
2019-02-10T20:48:23.036Z,1.60
2019-02-10T20:52:49.020Z,1.60
2019-02-10T20:57:03.943Z,7.63
2019-02-10T21:01:30.032Z,2.40
2019-02-10T21:05:56.107Z,1.40
2019-02-10T21:10:21.706Z,1.40
2019-02-10T21:14:47.979Z,1.60
2019-02-10T21:19:53.961Z,1.50
2019-02-10T21:24:35.843Z,1.10
2019-02-10T21:34:08.316Z,1.50
2019-02-10T21:38:50.467Z,1.33
2019-02-10T21:43:16.207Z,1.37
2019-02-10T21:47:31.947Z,1.70
2019-02-10T21:51:38.718Z,1.30
2019-02-10T21:55:46.387Z,1.27
2019-02-10T21:59:53.856Z,1.00
2019-02-10T22:04:00.702Z,1.57
2019-02-10T22:08:07.542Z,1.50
2019-02-10T22:12:14.380Z,1.37
2019-02-10T22:16:21.200Z,1.27
2019-02-10T22:20:28.008Z,1.37
2019-02-10T22:24:34.915Z,1.40
2019-02-10T22:28:41.751Z,1.13
2019-02-10T22:32:48.701Z,1.40
2019-02-10T22:36:55.583Z,1.10
2019-02-10T22:41:02.436Z,0.90
2019-02-10T22:45:11.045Z,1.10
2019-02-10T22:49:18.841Z,1.87
2019-02-10T22:53:25.683Z,1.20
2019-02-10T22:57:34.638Z,1.40
2019-02-10T23:01:42.018Z,1.13
2019-02-10T23:05:49.216Z,1.00
2019-02-10T23:09:56.553Z,0.97
2019-02-10T23:14:03.339Z,0.90
2019-02-10T23:18:10.252Z,1.23
2019-02-10T23:22:17.154Z,1.20
2019-02-10T23:26:24.173Z,0.80
2019-02-10T23:30:31.087Z,0.87
2019-02-10T23:34:37.922Z,0.70
2019-02-10T23:38:44.873Z,1.43
2019-02-10T23:42:52.799Z,0.90
2019-02-10T23:46:59.657Z,1.00
2019-02-10T23:51:06.574Z,0.90
2019-02-10T23:55:13.384Z,1.20
2019-02-10T23:59:20.191Z,0.93
